createdAt,value
2023-11-22T00:00:24.800Z,84183.81
2023-11-22T00:02:52.071Z,84184.56
2023-11-22T00:05:19.477Z,84183.41
2023-11-22T00:07:46.673Z,84172.94
2023-11-22T00:10:14.370Z,84184.56
2023-11-22T00:12:41.605Z,84092.50
2023-11-22T00:15:11.612Z,84115.88
2023-11-22T00:17:39.123Z,84091.16
2023-11-22T00:20:07.386Z,84184.16
2023-11-22T00:22:34.812Z,84208.66
2023-11-22T00:25:03.123Z,84205.19
2023-11-22T00:27:32.713Z,84200.78
2023-11-22T00:30:00.600Z,84210.06
2023-11-22T00:32:28.297Z,84212.13
2023-11-22T00:34:55.737Z,84213.00
2023-11-22T00:37:23.133Z,84191.88
2023-11-22T00:39:50.323Z,84203.00
2023-11-22T00:42:21.285Z,84220.19
2023-11-22T00:44:49.274Z,84220.00
2023-11-22T00:47:18.152Z,84213.75
2023-11-22T00:49:45.636Z,84214.41
2023-11-22T00:52:14.466Z,84215.50
2023-11-22T00:54:41.966Z,84171.16
2023-11-22T00:57:09.239Z,84221.91
2023-11-22T00:59:36.551Z,84179.50
2023-11-22T01:02:04.145Z,84223.31
2023-11-22T01:04:35.341Z,84134.59
2023-11-22T01:07:03.174Z,84208.06
2023-11-22T01:09:30.454Z,84189.56
2023-11-22T01:11:57.770Z,84167.88
2023-11-22T01:14:25.369Z,84230.22
2023-11-22T01:16:52.897Z,84204.13
2023-11-22T01:19:20.195Z,84219.28
2023-11-22T01:21:47.545Z,84181.03
2023-11-22T01:24:14.796Z,84219.66
2023-11-22T01:26:42.284Z,84123.31
2023-11-22T01:29:09.675Z,84203.50
2023-11-22T01:31:36.993Z,84142.59
2023-11-22T01:34:08.140Z,84240.03
2023-11-22T01:36:35.608Z,84193.47
2023-11-22T01:39:03.521Z,84244.44
2023-11-22T01:41:31.524Z,84235.88
2023-11-22T01:43:59.364Z,84231.84
2023-11-22T01:46:27.461Z,84240.31
2023-11-22T01:48:55.953Z,84161.22
2023-11-22T01:51:25.273Z,84238.69
2023-11-22T01:53:55.892Z,84241.84
2023-11-22T01:56:25.584Z,84260.19
2023-11-22T01:58:55.084Z,84212.50
2023-11-22T02:01:22.615Z,84214.19
2023-11-22T02:03:50.454Z,84274.69
2023-11-22T02:06:18.112Z,84265.94
2023-11-22T02:08:45.413Z,84254.28
2023-11-22T02:11:12.767Z,84240.47
2023-11-22T02:13:40.050Z,84171.41
2023-11-22T02:16:07.492Z,84164.47
2023-11-22T02:18:35.309Z,84267.69
2023-11-22T02:21:03.055Z,84191.88
2023-11-22T02:23:30.380Z,84275.78
2023-11-22T02:25:57.721Z,84260.03
2023-11-22T02:28:24.967Z,84278.78
2023-11-22T02:30:52.948Z,84192.34
2023-11-22T02:33:20.401Z,84266.78
2023-11-22T02:35:47.665Z,84261.00
2023-11-22T02:38:15.253Z,84256.84
2023-11-22T02:40:42.610Z,84263.84
2023-11-22T02:43:10.427Z,84262.13
2023-11-22T02:45:38.493Z,84256.31
2023-11-22T02:48:10.710Z,84257.16
2023-11-22T02:50:45.070Z,84256.50
2023-11-22T02:53:12.570Z,84242.47
2023-11-22T02:55:39.851Z,84164.09
2023-11-22T02:58:07.636Z,84247.50
2023-11-22T03:00:36.222Z,84246.47
2023-11-22T03:03:05.254Z,84248.06
2023-11-22T03:05:34.063Z,84184.66
2023-11-22T03:08:02.146Z,84241.03
2023-11-22T03:10:29.425Z,84242.06
2023-11-22T03:12:56.777Z,84237.94
2023-11-22T03:15:24.034Z,84260.19
2023-11-22T03:17:51.408Z,84262.50
2023-11-22T03:20:18.863Z,84260.13
2023-11-22T03:22:46.308Z,84181.03
2023-11-22T03:25:13.591Z,84174.44
2023-11-22T03:27:40.927Z,84275.25
2023-11-22T03:30:13.304Z,84301.25
2023-11-22T03:32:41.976Z,84278.94
2023-11-22T03:35:09.998Z,84316.09
2023-11-22T03:37:38.941Z,84229.66
2023-11-22T03:40:06.898Z,84321.09
2023-11-22T03:42:34.203Z,84265.47
2023-11-22T03:45:01.469Z,84332.69
2023-11-22T03:47:29.705Z,84269.25
2023-11-22T03:49:57.476Z,84332.34
2023-11-22T03:52:30.442Z,84302.00
2023-11-22T03:54:59.924Z,84307.34
2023-11-22T03:57:27.167Z,84329.09
2023-11-22T03:59:54.599Z,84330.84
2023-11-22T04:02:22.125Z,84334.63
2023-11-22T04:04:49.605Z,84256.66
2023-11-22T04:07:17.040Z,84337.22
2023-11-22T04:09:44.395Z,84338.03
2023-11-22T04:12:11.798Z,84342.59
2023-11-22T04:14:39.322Z,84349.16
2023-11-22T04:17:07.562Z,84366.38
2023-11-22T04:19:35.363Z,84364.66
2023-11-22T04:22:03.079Z,84384.94
2023-11-22T04:24:31.091Z,84291.53
2023-11-22T04:26:58.477Z,84397.22
2023-11-22T04:29:26.628Z,84389.69
2023-11-22T04:31:53.956Z,84399.78
2023-11-22T04:34:21.702Z,84410.13
2023-11-22T04:36:48.983Z,84412.22
2023-11-22T04:39:16.742Z,84371.97
2023-11-22T04:41:44.317Z,84418.38
2023-11-22T04:44:12.369Z,84394.50
2023-11-22T04:46:39.914Z,84408.25
2023-11-22T04:49:08.904Z,84378.88
2023-11-22T04:51:36.190Z,84419.94
2023-11-22T04:54:04.121Z,84417.59
2023-11-22T04:56:31.403Z,84416.78
2023-11-22T04:58:58.867Z,84416.34
2023-11-22T05:01:27.058Z,84410.56
2023-11-22T05:03:54.612Z,84396.53
2023-11-22T05:06:22.222Z,84409.34
2023-11-22T05:08:49.853Z,84420.81
2023-11-22T05:11:17.454Z,84327.78
2023-11-22T05:13:44.897Z,84415.38
2023-11-22T05:16:12.381Z,84401.34
2023-11-22T05:18:39.772Z,84414.94
2023-11-22T05:21:07.452Z,84378.75
2023-11-22T05:23:34.880Z,84428.47
2023-11-22T05:26:02.266Z,84427.94
2023-11-22T05:28:29.750Z,84405.31
2023-11-22T05:30:57.314Z,84446.91
2023-11-22T05:33:25.426Z,84468.38
2023-11-22T05:35:52.858Z,84456.34
2023-11-22T05:38:20.362Z,84442.91
2023-11-22T05:40:47.757Z,84442.56
2023-11-22T05:43:15.076Z,84465.13
2023-11-22T05:45:42.266Z,84463.94
2023-11-22T05:48:09.613Z,84469.28
2023-11-22T05:50:36.970Z,84453.38
2023-11-22T05:53:04.506Z,84472.94
2023-11-22T05:55:31.785Z,84460.75
2023-11-22T05:57:59.232Z,84460.34
2023-11-22T06:00:27.738Z,84485.81
2023-11-22T06:02:54.984Z,84493.44
2023-11-22T06:05:22.746Z,84492.72
2023-11-22T06:07:50.117Z,84486.41
2023-11-22T06:10:17.393Z,84441.66
2023-11-22T06:12:45.415Z,84421.00
2023-11-22T06:15:13.442Z,84494.81
2023-11-22T06:17:40.944Z,84488.09
2023-11-22T06:20:09.060Z,84507.72
2023-11-22T06:22:36.388Z,84405.53
2023-11-22T06:25:03.831Z,84499.34
2023-11-22T06:27:31.128Z,84498.47
2023-11-22T06:29:58.992Z,84490.41
2023-11-22T06:32:26.489Z,84506.78
2023-11-22T06:34:53.832Z,84498.91
2023-11-22T06:37:22.092Z,84497.56
2023-11-22T06:39:49.288Z,84504.88
2023-11-22T06:42:16.487Z,84513.81
2023-11-22T06:44:44.267Z,84416.50
2023-11-22T06:47:14.739Z,84447.09
2023-11-22T06:49:42.210Z,84509.47
2023-11-22T06:52:10.256Z,84514.78
2023-11-22T06:54:37.906Z,84524.59
2023-11-22T06:57:05.338Z,84503.13
2023-11-22T06:59:32.680Z,84514.50
2023-11-22T07:01:59.923Z,84517.34
2023-11-22T07:04:27.474Z,84534.28
2023-11-22T07:06:54.854Z,84525.97
2023-11-22T07:09:22.147Z,84524.69
2023-11-22T07:11:51.109Z,84531.22
2023-11-22T07:14:18.422Z,84429.72
2023-11-22T07:16:45.681Z,84426.16
2023-11-22T07:19:13.960Z,84528.63
2023-11-22T07:21:41.176Z,84461.22
2023-11-22T07:24:08.814Z,84532.75
2023-11-22T07:26:36.055Z,84536.91
2023-11-22T07:29:03.449Z,84464.09
2023-11-22T07:31:30.688Z,84467.72
2023-11-22T07:33:58.013Z,84542.56
2023-11-22T07:36:26.074Z,84533.72
2023-11-22T07:38:55.216Z,84522.47
2023-11-22T07:41:22.782Z,84517.81
2023-11-22T07:43:51.026Z,84536.03
2023-11-22T07:46:18.973Z,84521.84
2023-11-22T07:48:48.539Z,84516.56
2023-11-22T07:51:18.141Z,84521.53
2023-11-22T07:53:45.860Z,84512.94
2023-11-22T07:56:13.840Z,84520.19
2023-11-22T07:58:42.260Z,84469.63
2023-11-22T08:01:14.824Z,84501.59
2023-11-22T08:03:47.842Z,84510.69
2023-11-22T08:06:18.022Z,84504.38
2023-11-22T08:08:47.566Z,84503.41
2023-11-22T08:11:19.456Z,84509.88
2023-11-22T08:13:49.046Z,84509.25
2023-11-22T08:16:16.430Z,84510.25
2023-11-22T08:18:44.814Z,84507.97
2023-11-22T08:21:12.975Z,84502.56
2023-11-22T08:23:40.547Z,84402.81
2023-11-22T08:26:10.016Z,84517.00
2023-11-22T08:28:37.670Z,84493.22
2023-11-22T08:31:11.368Z,84507.47
2023-11-22T08:33:39.472Z,84497.69
2023-11-22T08:36:10.539Z,84500.47
2023-11-22T08:38:37.956Z,84494.88
2023-11-22T08:41:09.838Z,84496.03
2023-11-22T08:43:37.206Z,84497.22
2023-11-22T08:46:13.778Z,84483.91
2023-11-22T08:48:43.862Z,84491.63
2023-11-22T08:51:11.975Z,84486.25
2023-11-22T08:53:39.466Z,84442.19
2023-11-22T08:56:07.311Z,84489.50
2023-11-22T08:58:35.349Z,84490.22
2023-11-22T09:01:05.185Z,84485.06
2023-11-22T09:03:34.146Z,84485.50
2023-11-22T09:06:02.012Z,84476.66
2023-11-22T09:08:31.620Z,84487.31
2023-11-22T09:10:59.215Z,84489.91
2023-11-22T09:13:26.675Z,84484.28
2023-11-22T09:15:54.105Z,84415.25
2023-11-22T09:18:23.254Z,84480.69
2023-11-22T09:20:50.613Z,84479.00
2023-11-22T09:23:18.468Z,84473.13
2023-11-22T09:25:45.801Z,84481.16
2023-11-22T09:28:13.118Z,84479.28
2023-11-22T09:30:42.494Z,84475.00
2023-11-22T09:33:17.808Z,84472.09
2023-11-22T09:35:47.798Z,84422.22
2023-11-22T09:38:17.448Z,84466.81
2023-11-22T09:40:50.374Z,84456.63
2023-11-22T09:43:20.566Z,84396.00
2023-11-22T09:45:53.280Z,84446.31
2023-11-22T09:48:26.462Z,84405.34
2023-11-22T09:51:10.039Z,84448.22
2023-11-22T09:53:54.484Z,84445.84
2023-11-22T09:56:22.042Z,84415.81
2023-11-22T09:58:52.993Z,84434.03
2023-11-22T10:01:20.480Z,84441.38
2023-11-22T10:03:48.987Z,84451.47
2023-11-22T10:06:17.279Z,84456.44
2023-11-22T10:08:48.133Z,84451.06
2023-11-22T10:11:19.410Z,84458.13
2023-11-22T10:13:58.524Z,84381.41
2023-11-22T10:16:26.078Z,84452.09
2023-11-22T10:18:53.408Z,84446.03
2023-11-22T10:21:33.755Z,84451.28
2023-11-22T10:24:05.468Z,84448.41
2023-11-22T10:26:33.489Z,84445.88
2023-11-22T10:29:01.174Z,84441.97
2023-11-22T10:31:29.651Z,84428.34
2023-11-22T10:33:59.169Z,84455.22
2023-11-22T10:36:27.070Z,84443.75
2023-11-22T10:38:55.736Z,84434.03
2023-11-22T10:41:26.032Z,84450.28
2023-11-22T10:43:58.647Z,84443.00
2023-11-22T10:46:29.536Z,84424.09
2023-11-22T10:48:59.677Z,84439.56
2023-11-22T10:51:33.347Z,84436.75
2023-11-22T10:54:05.413Z,84435.25
2023-11-22T10:56:41.042Z,84436.69
2023-11-22T10:59:24.134Z,84428.53
2023-11-22T11:01:54.213Z,84433.88
2023-11-22T11:04:28.889Z,84435.88
2023-11-22T11:06:59.772Z,84434.53
2023-11-22T11:09:33.924Z,84424.50
2023-11-22T11:12:07.618Z,84365.22
2023-11-22T11:14:36.723Z,84411.97
2023-11-22T11:17:06.219Z,84424.47
2023-11-22T11:19:34.422Z,84432.25
2023-11-22T11:22:02.312Z,84431.94
2023-11-22T11:24:29.686Z,84416.19
2023-11-22T11:26:57.013Z,84432.47
2023-11-22T11:29:32.368Z,84363.41
2023-11-22T11:31:59.832Z,84429.34
2023-11-22T11:34:27.103Z,84435.00
2023-11-22T11:36:58.113Z,84425.16
2023-11-22T11:39:32.850Z,84424.81
2023-11-22T11:42:17.342Z,84425.91
2023-11-22T11:44:54.153Z,84425.03
2023-11-22T11:47:21.776Z,84425.09
2023-11-22T11:49:51.750Z,84433.53
2023-11-22T11:52:19.236Z,84421.44
2023-11-22T11:54:46.566Z,84428.13
2023-11-22T11:57:14.041Z,84436.50
2023-11-22T11:59:43.353Z,84448.75
2023-11-22T12:02:11.004Z,84445.19
2023-11-22T12:04:38.230Z,84451.31
2023-11-22T12:07:09.553Z,84439.44
2023-11-22T12:09:37.237Z,84444.69
2023-11-22T12:12:04.853Z,84445.03
2023-11-22T12:14:32.272Z,84459.66
2023-11-22T12:17:00.563Z,84450.47
2023-11-22T12:19:32.369Z,84448.34
2023-11-22T12:22:00.399Z,84441.56
2023-11-22T12:24:28.533Z,84458.22
2023-11-22T12:26:57.540Z,84450.38
2023-11-22T12:29:25.383Z,84455.69
2023-11-22T12:31:54.186Z,84468.03
2023-11-22T12:34:21.503Z,84465.06
2023-11-22T12:36:50.168Z,84417.19
2023-11-22T12:39:20.426Z,84481.69
2023-11-22T12:42:02.176Z,84488.25
2023-11-22T12:44:55.650Z,84459.03
2023-11-22T12:47:39.098Z,84456.31
2023-11-22T12:50:08.621Z,84466.81
2023-11-22T12:52:46.608Z,84470.47
2023-11-22T12:55:17.814Z,84490.75
2023-11-22T12:57:45.683Z,84475.66
2023-11-22T13:00:13.684Z,84474.81
2023-11-22T13:02:52.251Z,84466.13
2023-11-22T13:05:29.116Z,84484.78
2023-11-22T13:07:56.422Z,84436.81
2023-11-22T13:10:26.879Z,84489.84
2023-11-22T13:12:55.536Z,84499.03
2023-11-22T13:15:24.702Z,84501.66
2023-11-22T13:17:56.633Z,84500.22
2023-11-22T13:20:27.283Z,84456.63
2023-11-22T13:22:55.404Z,84499.31
2023-11-22T13:25:24.925Z,84495.78
2023-11-22T13:27:53.565Z,84505.09
2023-11-22T13:30:24.379Z,84494.34
2023-11-22T13:32:53.039Z,84491.28
2023-11-22T13:35:20.351Z,84388.34
2023-11-22T13:37:51.712Z,84500.31
2023-11-22T13:40:23.416Z,84508.41
2023-11-22T13:42:53.695Z,84496.25
2023-11-22T13:45:24.302Z,84492.47
2023-11-22T13:48:00.409Z,84497.78
2023-11-22T13:50:28.694Z,84477.25
2023-11-22T13:52:57.513Z,84481.44
2023-11-22T13:55:26.520Z,84503.78
2023-11-22T13:57:55.965Z,84489.97
2023-11-22T14:00:28.149Z,84421.56
2023-11-22T14:02:58.458Z,84506.47
2023-11-22T14:05:27.954Z,84475.84
2023-11-22T14:07:55.623Z,84459.66
2023-11-22T14:10:23.774Z,84499.09
2023-11-22T14:12:51.853Z,84419.13
2023-11-22T14:15:22.464Z,84446.22
2023-11-22T14:17:54.089Z,84503.22
2023-11-22T14:20:22.509Z,84481.00
2023-11-22T14:22:49.911Z,84516.78
2023-11-22T14:25:17.568Z,84503.69
2023-11-22T14:27:47.076Z,84535.19
2023-11-22T14:30:18.597Z,84545.00
2023-11-22T14:32:46.568Z,84538.31
2023-11-22T14:35:14.075Z,84467.56
2023-11-22T14:37:42.202Z,84519.69
2023-11-22T14:40:15.012Z,84504.75
2023-11-22T14:42:44.367Z,84544.50
2023-11-22T14:45:12.840Z,84545.22
2023-11-22T14:47:41.487Z,84549.59
2023-11-22T14:50:13.095Z,84555.84
2023-11-22T14:52:41.436Z,84555.09
2023-11-22T14:55:10.677Z,84551.31
2023-11-22T14:57:38.530Z,84539.38
2023-11-22T15:00:11.110Z,84452.53
2023-11-22T15:02:38.782Z,84548.81
2023-11-22T15:05:12.189Z,84554.66
2023-11-22T15:07:43.216Z,84559.34
2023-11-22T15:10:12.268Z,84486.41
2023-11-22T15:12:41.775Z,84555.56
2023-11-22T15:15:10.208Z,84543.13
2023-11-22T15:17:37.557Z,84531.22
2023-11-22T15:20:11.675Z,84547.75
2023-11-22T15:22:39.933Z,84547.03
2023-11-22T15:25:07.739Z,84509.34
2023-11-22T15:27:36.046Z,84533.41
2023-11-22T15:30:04.870Z,84564.28
2023-11-22T15:32:32.398Z,84569.66
2023-11-22T15:35:01.765Z,84571.31
2023-11-22T15:37:30.620Z,84580.88
2023-11-22T15:39:58.688Z,84579.94
2023-11-22T15:42:26.186Z,84574.50
2023-11-22T15:44:53.629Z,84579.81
2023-11-22T15:47:21.568Z,84584.47
2023-11-22T15:49:48.866Z,84568.81
2023-11-22T15:52:16.757Z,84565.25
2023-11-22T15:54:44.221Z,84505.13
2023-11-22T15:57:11.507Z,84563.03
2023-11-22T15:59:38.790Z,84544.06
2023-11-22T16:02:09.822Z,84530.69
2023-11-22T16:04:37.953Z,84576.94
2023-11-22T16:07:05.690Z,84586.59
2023-11-22T16:09:33.375Z,84595.09
2023-11-22T16:12:00.657Z,84578.91
2023-11-22T16:14:28.239Z,84587.22
2023-11-22T16:16:55.527Z,84588.75
2023-11-22T16:19:22.849Z,84577.47
2023-11-22T16:21:50.097Z,84598.91
2023-11-22T16:24:17.526Z,84554.19
2023-11-22T16:26:44.975Z,84597.25
2023-11-22T16:29:16.310Z,84601.91
2023-11-22T16:31:45.615Z,84597.97
2023-11-22T16:34:12.984Z,84591.44
2023-11-22T16:36:40.316Z,84585.56
2023-11-22T16:39:20.327Z,84590.38
2023-11-22T16:41:54.439Z,84524.03
2023-11-22T16:44:21.811Z,84599.16
2023-11-22T16:46:50.353Z,84588.56
2023-11-22T16:49:17.844Z,84603.03
2023-11-22T16:51:47.391Z,84596.09
2023-11-22T16:54:15.335Z,84493.72
2023-11-22T16:56:42.895Z,84506.34
2023-11-22T16:59:10.809Z,84602.22
2023-11-22T17:01:38.372Z,84600.81
2023-11-22T17:04:06.039Z,84567.47
2023-11-22T17:06:33.578Z,84569.44
2023-11-22T17:09:01.320Z,84552.66
2023-11-22T17:11:28.626Z,84588.41
2023-11-22T17:13:56.009Z,84606.16
2023-11-22T17:16:23.498Z,84520.13
2023-11-22T17:18:50.791Z,84600.00
2023-11-22T17:21:18.705Z,84613.72
2023-11-22T17:23:46.636Z,84602.28
2023-11-22T17:26:14.210Z,84590.03
2023-11-22T17:28:41.863Z,84592.00
2023-11-22T17:31:09.245Z,84621.41
2023-11-22T17:33:37.029Z,84608.13
2023-11-22T17:36:05.940Z,84606.09
2023-11-22T17:38:33.587Z,84606.28
2023-11-22T17:41:03.968Z,84607.16
2023-11-22T17:43:31.366Z,84509.72
2023-11-22T17:45:59.390Z,84599.88
2023-11-22T17:48:27.152Z,84609.19
2023-11-22T17:50:56.433Z,84614.13
2023-11-22T17:53:27.504Z,84539.84
2023-11-22T17:55:55.106Z,84592.97
2023-11-22T17:58:22.457Z,84615.91
2023-11-22T18:00:49.967Z,84610.53
2023-11-22T18:03:17.558Z,84618.09
2023-11-22T18:05:46.678Z,84613.69
2023-11-22T18:08:21.290Z,84555.81
2023-11-22T18:10:50.944Z,84607.88
2023-11-22T18:13:19.305Z,84537.72
2023-11-22T18:15:48.564Z,84601.81
2023-11-22T18:18:17.343Z,84562.22
2023-11-22T18:20:46.400Z,84612.28
2023-11-22T18:23:14.113Z,84612.53
2023-11-22T18:25:41.572Z,84603.41
2023-11-22T18:28:12.393Z,84595.84
2023-11-22T18:30:40.036Z,84598.94
2023-11-22T18:33:13.264Z,84605.69
2023-11-22T18:35:41.318Z,84565.72
2023-11-22T18:38:08.847Z,84597.00
2023-11-22T18:40:36.554Z,84597.88
2023-11-22T18:43:07.158Z,84601.22
2023-11-22T18:45:34.868Z,84589.00
2023-11-22T18:48:02.599Z,84593.22
2023-11-22T18:50:30.374Z,84602.00
2023-11-22T18:52:57.748Z,84537.91
2023-11-22T18:55:25.197Z,84558.53
2023-11-22T18:57:52.629Z,84602.97
2023-11-22T19:00:21.426Z,84589.78
2023-11-22T19:02:48.714Z,84584.97
2023-11-22T19:05:16.531Z,84607.78
2023-11-22T19:07:43.873Z,84591.66
2023-11-22T19:10:11.298Z,84593.50
2023-11-22T19:12:40.723Z,84595.84
2023-11-22T19:15:11.930Z,84597.44
2023-11-22T19:18:35.597Z,84587.50
2023-11-22T19:21:22.597Z,84513.16
2023-11-22T19:23:53.462Z,84596.81
2023-11-22T19:26:25.275Z,84555.28
2023-11-22T19:28:53.240Z,84602.00
2023-11-22T19:31:21.556Z,84598.03
2023-11-22T19:33:49.136Z,84603.16
2023-11-22T19:36:27.113Z,84605.88
2023-11-22T19:38:57.686Z,84610.28
2023-11-22T19:41:25.846Z,84592.84
2023-11-22T19:43:53.085Z,84604.81
2023-11-22T19:46:21.141Z,84603.72
2023-11-22T19:48:48.474Z,84586.63
2023-11-22T19:51:15.857Z,84527.88
2023-11-22T19:53:43.164Z,84586.81
2023-11-22T19:56:10.622Z,84600.59
2023-11-22T19:58:37.932Z,84597.53
2023-11-22T20:01:07.235Z,84586.81
2023-11-22T20:03:34.706Z,84583.72
2023-11-22T20:06:02.249Z,84512.97
2023-11-22T20:08:29.627Z,84578.75
2023-11-22T20:10:56.972Z,84576.81
2023-11-22T20:13:24.147Z,84574.19
2023-11-22T20:15:53.105Z,84570.84
2023-11-22T20:18:20.437Z,84575.50
2023-11-22T20:20:48.157Z,84592.56
2023-11-22T20:23:18.353Z,84575.34
2023-11-22T20:25:45.768Z,84568.75
2023-11-22T20:28:13.235Z,84521.06
2023-11-22T20:30:40.545Z,84573.31
2023-11-22T20:33:08.069Z,84536.53
2023-11-22T20:35:35.551Z,84504.47
2023-11-22T20:38:03.072Z,84551.69
2023-11-22T20:40:30.292Z,84565.03
2023-11-22T20:42:58.425Z,84551.19
2023-11-22T20:45:25.801Z,84531.50
2023-11-22T20:47:53.053Z,84569.09
2023-11-22T20:50:20.330Z,84560.47
2023-11-22T20:52:47.615Z,84552.47
2023-11-22T20:55:16.797Z,84566.03
2023-11-22T20:57:44.109Z,84560.03
2023-11-22T21:00:12.432Z,84565.13
2023-11-22T21:02:40.900Z,84554.66
2023-11-22T21:05:09.012Z,84484.19
2023-11-22T21:07:36.562Z,84533.16
2023-11-22T21:10:04.539Z,84522.38
2023-11-22T21:12:31.873Z,84536.84
2023-11-22T21:15:00.291Z,84540.09
2023-11-22T21:17:36.853Z,84535.72
2023-11-22T21:20:11.349Z,84534.31
2023-11-22T21:22:39.113Z,84528.06
2023-11-22T21:25:10.997Z,84461.00
2023-11-22T21:27:41.655Z,84530.97
2023-11-22T21:30:11.356Z,84528.59
2023-11-22T21:32:39.660Z,84530.03
2023-11-22T21:35:09.635Z,84518.41
2023-11-22T21:37:37.198Z,84417.94
2023-11-22T21:40:11.790Z,84521.56
2023-11-22T21:42:42.147Z,84498.41
2023-11-22T21:45:12.674Z,84509.81
2023-11-22T21:47:40.580Z,84499.66
2023-11-22T21:50:09.054Z,84518.34
2023-11-22T21:52:36.381Z,84487.69
2023-11-22T21:55:04.138Z,84500.78
2023-11-22T21:57:31.862Z,84438.47
2023-11-22T22:00:00.558Z,84510.06
2023-11-22T22:02:28.492Z,84482.00
2023-11-22T22:04:55.703Z,84498.59
2023-11-22T22:07:23.591Z,84444.34
2023-11-22T22:09:50.871Z,84482.72
2023-11-22T22:12:18.160Z,84500.44
2023-11-22T22:14:45.421Z,84477.69
2023-11-22T22:17:12.885Z,84426.38
2023-11-22T22:19:40.278Z,84369.44
2023-11-22T22:22:07.562Z,84476.56
2023-11-22T22:24:34.774Z,84390.81
2023-11-22T22:27:02.045Z,84441.88
2023-11-22T22:29:29.417Z,84484.00
2023-11-22T22:31:56.810Z,84474.72
2023-11-22T22:34:23.973Z,84482.59
2023-11-22T22:36:52.695Z,84485.44
2023-11-22T22:39:19.880Z,84477.97
2023-11-22T22:41:52.849Z,84481.19
2023-11-22T22:44:20.159Z,84436.78
2023-11-22T22:46:47.447Z,84471.00
2023-11-22T22:49:15.228Z,84464.09
2023-11-22T22:51:43.083Z,84466.09
2023-11-22T22:54:10.829Z,84415.13
2023-11-22T22:56:38.089Z,84410.66
2023-11-22T22:59:07.743Z,84457.84
2023-11-22T23:01:35.649Z,84432.94
2023-11-22T23:04:05.029Z,84440.81
2023-11-22T23:06:32.465Z,84445.56
2023-11-22T23:08:59.691Z,84451.34
2023-11-22T23:11:27.094Z,84443.38
2023-11-22T23:13:54.293Z,84437.06
2023-11-22T23:16:21.594Z,84429.63
2023-11-22T23:18:57.711Z,84416.72
2023-11-22T23:21:28.049Z,84434.44
2023-11-22T23:23:55.620Z,84426.88
2023-11-22T23:26:27.000Z,84431.88
2023-11-22T23:28:54.684Z,84425.28
2023-11-22T23:31:22.087Z,84417.66
2023-11-22T23:33:51.912Z,84316.69
2023-11-22T23:36:19.941Z,84418.63
2023-11-22T23:38:47.997Z,84418.03
2023-11-22T23:41:15.699Z,84370.81
2023-11-22T23:43:43.093Z,84355.66
2023-11-22T23:46:11.882Z,84409.97
2023-11-22T23:48:39.945Z,84419.34
2023-11-22T23:51:07.656Z,84399.69
2023-11-22T23:53:34.892Z,84333.31
2023-11-22T23:56:06.871Z,84401.19
2023-11-22T23:58:34.091Z,84356.28
